Aeroporto :
LOGIN :

Iscrizione | Disclaimer

   EN    FR    IT 

 










Sommario :    VFR   VFR Marginale   IFR   IFR Intensivo   IFR Molto Intensivo
Visibilità : 
Base nubi : 
>= 8 km
>= 3000ft
5 / 8 km
1000 / 3000 ft
1500m / 5 km
500 / 1000 ft
800 / 1500m
200 / 500 ft
< 800m
< 200 ft
Simboli :   Temporali  Nebbia  Neve Forte  Precipitazioni Forti  Vento > 20 kt
SIGMETs :   Varie  Temporali  Ghiacco  Turbolenza  Onda orograficha  Ceneri Vulcaniche






- Altitudine del aeroporto : 876 ft
- Codice IATA : MBX


LJMB - Maribor

ULTIMO METAR :
  • 212300Z AUTO VRB01KT 9999 NCD 02/M01 Q1018

METARs OBSOLETI :
  • 212230Z AUTO VRB01KT //// // NCD 02/M01 Q1017
  • 212200Z AUTO 00000KT 9999 NCD 02/M00 Q1017
  • 212130Z AUTO 00000KT 9999 NCD 03/M00 Q1017
  • 212100Z AUTO 00000KT 9999 NCD 03/M01 Q1017
  • 212030Z AUTO 34003KT 9999 NSC 03/00 Q1016
  • 212000Z AUTO VRB03KT 9999 NSC 04/00 Q1016
  • 211930Z AUTO 34004KT 9999 NSC 04/00 Q1016
  • 211830Z AUTO VRB01KT 9999 NCD 06/01 Q1015

TAF TAF LJMB
Valido dal 21 a 18 ore il 22 a 18 ore UTC


211700Z 2118/2218 08005KT CAVOK



MetMap, La meteo Aeronautica in un colpo d'occhio ! - Copyright ORBIFLY Dicembre 2007 - Disclaimer

ORBIFLY MET'MAP TEAM :

Programmazione e sviluppo : Alexandra Zaïnal
Concezione : Baudouin d'Aumeries
Supporto tecnico e logistico : Manuel Goepfert
Aiuto : Marc-Olivier Méhu
Aiuto per la traduzione : Arnaldo La Scala




FONTI E CREDITI :

   NOAA